Time;durP1;ratioP1;P1;durP2;ratioP2;P2;SDS_P1;SDS_P2;PMS_P1;PMS_P2;Temp;Humidity;BMP_temperature;BMP_pressure;BME280_temperature;BME280_humidity;BME280_pressure;Samples;Min_cycle;Max_cycle;Signal;HPM_P1;HPM_P2
2023/09/25 00:00:32;;;;;;;1.95;0.30;;;12.70;99.90;;;;;;5013286;28;20414;-88
2023/09/25 00:02:59;;;;;;;1.17;0.30;;;12.80;99.90;;;;;;5003128;28;20032;-86
2023/09/25 00:05:26;;;;;;;1.10;0.30;;;12.70;99.90;;;;;;5016013;28;20087;-86
2023/09/25 00:07:52;;;;;;;1.20;0.30;;;12.70;99.90;;;;;;5001170;28;20028;-88
2023/09/25 00:10:17;;;;;;;1.30;0.30;;;12.60;99.90;;;;;;5014472;28;20394;-89
2023/09/25 00:12:44;;;;;;;1.10;0.20;;;12.60;99.90;;;;;;5017342;28;20116;-87
2023/09/25 00:15:10;;;;;;;1.10;0.30;;;12.60;99.90;;;;;;5031976;28;20029;-86
2023/09/25 00:17:38;;;;;;;1.70;0.20;;;12.60;99.90;;;;;;5010767;28;20018;-87
2023/09/25 00:20:04;;;;;;;0.98;0.20;;;12.50;99.90;;;;;;5014947;28;20472;-88
2023/09/25 00:22:30;;;;;;;2.50;0.30;;;12.50;99.90;;;;;;5019040;28;20473;-87
2023/09/25 00:24:59;;;;;;;1.50;0.20;;;12.50;99.90;;;;;;5014633;28;20481;-86
2023/09/25 00:27:25;;;;;;;1.02;0.20;;;12.40;99.90;;;;;;4997814;28;20466;-86
2023/09/25 00:29:52;;;;;;;1.10;0.20;;;12.40;99.90;;;;;;5032347;28;20038;-89
2023/09/25 00:32:17;;;;;;;1.00;0.20;;;12.40;99.90;;;;;;5013663;28;20079;-87
2023/09/25 00:34:43;;;;;;;0.60;0.30;;;12.40;99.90;;;;;;5033689;28;20112;-87
2023/09/25 00:37:09;;;;;;;1.50;0.20;;;12.40;99.90;;;;;;5017432;28;20121;-88
2023/09/25 00:39:34;;;;;;;0.70;0.10;;;12.40;99.90;;;;;;5017269;28;20085;-87
2023/09/25 00:42:00;;;;;;;0.88;0.25;;;12.40;99.90;;;;;;5015809;28;20526;-86
2023/09/25 00:44:26;;;;;;;0.70;0.30;;;12.30;99.90;;;;;;5017739;28;20034;-86
2023/09/25 00:46:52;;;;;;;0.60;0.20;;;12.30;99.90;;;;;;5019151;28;20033;-88
2023/09/25 00:49:18;;;;;;;1.27;0.30;;;12.20;99.90;;;;;;5016175;28;20033;-87
2023/09/25 00:51:48;;;;;;;0.50;0.17;;;12.20;99.90;;;;;;5000164;28;20042;-87
2023/09/25 00:54:15;;;;;;;;;;;12.30;99.90;;;;;;5016919;28;20028;-86
2023/09/25 00:56:41;;;;;;;0.22;0.10;;;12.20;99.90;;;;;;5017734;28;19925;-88
2023/09/25 00:59:07;;;;;;;0.60;0.20;;;12.20;99.90;;;;;;5008726;28;20087;-87
2023/09/25 01:01:34;;;;;;;0.50;0.17;;;12.10;99.90;;;;;;4993047;28;20537;-87
2023/09/25 01:03:59;;;;;;;0.80;0.20;;;12.10;99.90;;;;;;5009093;28;20112;-87
2023/09/25 01:06:25;;;;;;;0.75;0.30;;;12.10;99.90;;;;;;4991753;28;20125;-88
2023/09/25 01:08:51;;;;;;;0.60;0.20;;;12.10;99.90;;;;;;5011689;28;20467;-86
2023/09/25 01:11:17;;;;;;;0.75;0.20;;;12.10;99.90;;;;;;5010478;28;20125;-86
2023/09/25 01:13:43;;;;;;;0.52;0.20;;;12.00;99.90;;;;;;5007681;28;20049;-88
2023/09/25 01:16:08;;;;;;;0.60;0.20;;;12.10;99.90;;;;;;5008041;28;20041;-88
2023/09/25 01:18:34;;;;;;;2.35;0.28;;;12.10;99.90;;;;;;4990967;28;20072;-90
2023/09/25 01:21:02;;;;;;;1.25;0.20;;;12.10;99.90;;;;;;5007776;28;20028;-87
2023/09/25 01:23:27;;;;;;;1.13;0.30;;;12.10;99.90;;;;;;5008416;28;20030;-89
2023/09/25 01:25:54;;;;;;;0.80;0.35;;;12.10;99.90;;;;;;5009100;28;20052;-87
2023/09/25 01:28:19;;;;;;;1.15;0.20;;;12.10;99.90;;;;;;4994472;28;20451;-87
2023/09/25 01:30:45;;;;;;;0.80;0.20;;;12.10;99.90;;;;;;5026764;28;20485;-87
2023/09/25 01:33:11;;;;;;;0.85;0.20;;;12.00;99.90;;;;;;5008214;28;20805;-87
2023/09/25 01:35:37;;;;;;;0.90;0.25;;;12.00;99.90;;;;;;5009309;28;20018;-87
2023/09/25 01:38:04;;;;;;;1.10;0.20;;;11.90;99.90;;;;;;5027179;28;20481;-87
2023/09/25 01:40:31;;;;;;;0.90;0.20;;;11.90;99.90;;;;;;5008429;28;20044;-87
2023/09/25 01:42:57;;;;;;;1.90;0.20;;;11.90;99.90;;;;;;4991928;28;20032;-87
2023/09/25 01:45:23;;;;;;;0.52;0.20;;;11.90;99.90;;;;;;4992283;28;20432;-87
2023/09/25 01:47:51;;;;;;;0.57;0.20;;;11.90;99.90;;;;;;5011899;28;20386;-86
2023/09/25 01:50:17;;;;;;;0.47;0.15;;;11.80;99.90;;;;;;5009059;28;20033;-89
2023/09/25 01:52:43;;;;;;;0.82;0.20;;;11.80;99.90;;;;;;5007810;28;20088;-88
2023/09/25 01:55:08;;;;;;;0.75;0.22;;;11.80;99.90;;;;;;4990974;28;20022;-87
2023/09/25 01:57:35;;;;;;;0.80;0.20;;;11.80;99.90;;;;;;4989064;28;20056;-86
2023/09/25 02:00:01;;;;;;;1.08;0.20;;;11.70;99.90;;;;;;4992727;28;20034;-86
2023/09/25 02:02:26;;;;;;;0.60;0.20;;;11.80;99.90;;;;;;5009430;28;20052;-87
2023/09/25 02:04:52;;;;;;;0.57;0.20;;;11.80;99.90;;;;;;5009235;28;20470;-89
2023/09/25 02:07:18;;;;;;;2.80;0.20;;;11.80;99.90;;;;;;5008316;28;20573;-86
2023/09/25 02:09:45;;;;;;;0.57;0.20;;;11.80;99.90;;;;;;5008647;28;20022;-87
2023/09/25 02:12:11;;;;;;;0.77;0.20;;;11.80;99.90;;;;;;4994032;28;20117;-87
2023/09/25 02:14:37;;;;;;;0.57;0.15;;;11.80;99.90;;;;;;4992648;28;20112;-86
2023/09/25 02:17:03;;;;;;;0.60;0.20;;;11.80;99.90;;;;;;5027327;28;20062;-86
2023/09/25 02:19:31;;;;;;;1.00;0.20;;;11.80;99.90;;;;;;5014911;28;20084;-86
2023/09/25 02:21:57;;;;;;;0.40;0.10;;;11.80;99.90;;;;;;5010512;28;20026;-87
2023/09/25 02:24:24;;;;;;;1.83;0.20;;;11.80;99.90;;;;;;5011138;28;20040;-87
2023/09/25 02:26:50;;;;;;;0.50;0.10;;;11.70;99.90;;;;;;4997673;28;20025;-87
2023/09/25 02:29:16;;;;;;;0.60;0.20;;;11.70;99.90;;;;;;4997292;28;20121;-86
2023/09/25 02:31:42;;;;;;;0.80;0.20;;;11.70;99.90;;;;;;5011387;28;20022;-87
2023/09/25 02:34:14;;;;;;;2.08;0.25;;;11.80;99.90;;;;;;4995008;28;20044;-87
2023/09/25 02:36:40;;;;;;;1.15;0.20;;;11.70;99.90;;;;;;4991946;28;20059;-87
2023/09/25 02:39:06;;;;;;;0.60;0.20;;;11.80;99.90;;;;;;5015911;28;20041;-89
2023/09/25 02:41:32;;;;;;;0.70;0.20;;;11.80;99.90;;;;;;5029471;28;20165;-87
2023/09/25 02:43:58;;;;;;;1.20;0.20;;;11.80;99.90;;;;;;4997607;28;20029;-87
2023/09/25 02:46:24;;;;;;;0.95;0.20;;;11.90;99.90;;;;;;4994472;28;20028;-87
2023/09/25 02:48:49;;;;;;;1.77;0.20;;;11.90;99.90;;;;;;4994426;28;20116;-87
2023/09/25 02:51:15;;;;;;;1.42;0.20;;;11.80;99.90;;;;;;5027332;28;20407;-87
2023/09/25 02:53:41;;;;;;;1.38;0.20;;;11.80;99.90;;;;;;5012018;28;20050;-87
2023/09/25 02:56:06;;;;;;;0.60;0.20;;;11.90;99.90;;;;;;4997316;28;20351;-90
2023/09/25 02:58:32;;;;;;;2.15;0.30;;;11.80;99.90;;;;;;5031629;28;20435;-89
2023/09/25 03:01:01;;;;;;;1.55;0.30;;;11.80;99.90;;;;;;5021532;28;20366;-88
2023/09/25 03:03:29;;;;;;;0.57;0.20;;;11.80;99.90;;;;;;5018337;28;20022;-87
2023/09/25 03:05:54;;;;;;;2.25;0.20;;;11.80;99.90;;;;;;5003041;28;20500;-87
2023/09/25 03:08:21;;;;;;;0.60;0.20;;;11.80;99.90;;;;;;5034844;28;20022;-87
2023/09/25 03:10:47;;;;;;;0.63;0.20;;;11.80;99.90;;;;;;5017156;28;20032;-87
2023/09/25 03:13:13;;;;;;;0.73;0.20;;;11.80;99.90;;;;;;4997328;28;20029;-86
2023/09/25 03:15:39;;;;;;;0.73;0.20;;;11.80;99.90;;;;;;5017633;28;20025;-89
2023/09/25 03:18:05;;;;;;;0.93;0.20;;;11.80;99.90;;;;;;5037011;28;20370;-87
2023/09/25 03:20:30;;;;;;;0.80;0.20;;;11.80;99.90;;;;;;5000652;28;20029;-87
2023/09/25 03:22:56;;;;;;;0.70;0.20;;;11.80;99.90;;;;;;5003038;28;20029;-87
2023/09/25 03:25:22;;;;;;;0.82;0.20;;;11.80;99.90;;;;;;5018471;28;20033;-88
2023/09/25 03:27:49;;;;;;;0.60;0.20;;;11.80;99.90;;;;;;5020442;28;20037;-86
2023/09/25 03:30:16;;;;;;;0.65;0.20;;;11.80;99.90;;;;;;5036572;28;20025;-86
2023/09/25 03:32:43;;;;;;;1.30;0.30;;;11.80;99.90;;;;;;4996902;28;20026;-88
2023/09/25 03:35:10;;;;;;;1.17;0.20;;;11.80;99.90;;;;;;4995183;28;20134;-90
2023/09/25 03:37:36;;;;;;;0.90;0.20;;;11.80;99.90;;;;;;5002712;28;20477;-88
2023/09/25 03:40:07;;;;;;;1.48;0.20;;;11.80;99.90;;;;;;5003164;28;20040;-89
2023/09/25 03:42:33;;;;;;;1.13;0.20;;;11.80;99.90;;;;;;5005750;28;20021;-87
2023/09/25 03:45:01;;;;;;;0.77;0.20;;;11.80;99.90;;;;;;5020877;28;20034;-86
2023/09/25 03:47:27;;;;;;;0.90;0.20;;;11.80;99.90;;;;;;5019913;28;20037;-88
2023/09/25 03:49:53;;;;;;;0.63;0.20;;;11.80;99.90;;;;;;5002106;28;20033;-87
2023/09/25 03:52:19;;;;;;;0.63;0.20;;;11.80;99.90;;;;;;5019751;28;20384;-86
2023/09/25 03:54:44;;;;;;;1.55;0.20;;;11.80;99.90;;;;;;5034528;28;20061;-87
2023/09/25 03:57:10;;;;;;;0.90;0.20;;;11.90;99.90;;;;;;5039669;28;20045;-88
2023/09/25 03:59:36;;;;;;;1.10;0.30;;;11.90;99.90;;;;;;5017043;28;20116;-87
2023/09/25 04:02:01;;;;;;;0.77;0.20;;;11.90;99.90;;;;;;5003613;28;20032;-87
2023/09/25 04:04:27;;;;;;;0.93;0.20;;;11.80;99.90;;;;;;5018115;28;20473;-87
2023/09/25 04:06:53;;;;;;;0.77;0.30;;;11.90;99.90;;;;;;5018509;28;20453;-87
2023/09/25 04:09:20;;;;;;;1.15;0.28;;;11.90;99.90;;;;;;5020089;28;20037;-88
2023/09/25 04:11:46;;;;;;;1.15;0.28;;;11.90;99.90;;;;;;5003512;28;20038;-88
2023/09/25 04:14:11;;;;;;;0.98;0.30;;;11.90;99.90;;;;;;5030990;28;20044;-88
2023/09/25 04:16:38;;;;;;;1.15;0.20;;;11.90;99.90;;;;;;5019956;28;20100;-88
2023/09/25 04:19:04;;;;;;;0.73;0.20;;;11.90;99.90;;;;;;5015318;28;20065;-90
2023/09/25 04:21:31;;;;;;;1.45;0.35;;;11.90;99.90;;;;;;5002988;28;20064;-86
2023/09/25 04:23:57;;;;;;;0.85;0.20;;;12.00;99.90;;;;;;5001493;28;20036;-87
2023/09/25 04:26:23;;;;;;;0.60;0.20;;;11.90;99.90;;;;;;5017314;28;20083;-88
2023/09/25 04:28:49;;;;;;;0.45;0.20;;;11.90;99.90;;;;;;5017167;28;20038;-87
2023/09/25 04:31:15;;;;;;;0.77;0.20;;;12.00;99.90;;;;;;5033426;28;20038;-88
2023/09/25 04:33:40;;;;;;;0.80;0.20;;;11.90;99.90;;;;;;5022068;28;20033;-86
2023/09/25 04:36:10;;;;;;;0.40;0.10;;;11.90;99.90;;;;;;5036877;28;20029;-87
2023/09/25 04:38:38;;;;;;;1.05;0.22;;;11.90;99.90;;;;;;5015893;28;20238;-86
2023/09/25 04:41:05;;;;;;;1.00;0.30;;;11.80;99.90;;;;;;5010096;28;20036;-86
2023/09/25 04:43:35;;;;;;;0.60;0.20;;;11.80;99.90;;;;;;5021663;28;20105;-87
2023/09/25 04:46:01;;;;;;;1.13;0.30;;;11.90;99.90;;;;;;5016858;28;20026;-87
2023/09/25 04:48:29;;;;;;;0.75;0.20;;;11.90;99.90;;;;;;5015180;28;20041;-84
2023/09/25 04:50:56;;;;;;;0.77;0.20;;;11.80;99.90;;;;;;5013225;28;20489;-87
2023/09/25 04:53:22;;;;;;;0.63;0.20;;;11.80;99.90;;;;;;5004437;28;20029;-88
2023/09/25 04:55:48;;;;;;;0.77;0.20;;;11.80;99.90;;;;;;5039251;28;20071;-88
2023/09/25 04:58:13;;;;;;;0.60;0.30;;;11.90;99.90;;;;;;5032281;28;20048;-86
2023/09/25 05:00:41;;;;;;;0.80;0.20;;;11.80;99.90;;;;;;4982495;28;20655;-88
2023/09/25 05:03:07;;;;;;;0.65;0.20;;;11.80;99.90;;;;;;4983397;28;20065;-85
2023/09/25 05:05:33;;;;;;;1.33;0.25;;;11.80;99.90;;;;;;5002474;28;20037;-87
2023/09/25 05:07:59;;;;;;;1.52;0.30;;;11.80;99.90;;;;;;4982854;28;20045;-84
2023/09/25 05:10:27;;;;;;;0.55;0.20;;;11.80;99.90;;;;;;4998597;28;20578;-87
2023/09/25 05:12:54;;;;;;;0.90;0.20;;;11.70;99.90;;;;;;4991860;28;20051;-89
2023/09/25 05:15:20;;;;;;;1.27;0.20;;;11.70;99.90;;;;;;4998515;28;20559;-85
2023/09/25 05:17:47;;;;;;;0.68;0.20;;;11.80;99.90;;;;;;4983746;28;20038;-88
2023/09/25 05:20:18;;;;;;;0.95;0.30;;;11.80;99.90;;;;;;4982057;28;20315;-86
2023/09/25 05:22:49;;;;;;;1.35;0.30;;;11.80;99.90;;;;;;4991152;28;20524;-86
2023/09/25 05:25:17;;;;;;;1.38;0.30;;;11.80;99.90;;;;;;4999649;28;20160;-87
2023/09/25 05:27:46;;;;;;;1.05;0.30;;;11.70;99.90;;;;;;4999701;28;20033;-90
2023/09/25 05:30:13;;;;;;;0.95;0.20;;;11.70;99.90;;;;;;4989875;28;20029;-88
2023/09/25 05:32:40;;;;;;;0.63;0.20;;;11.70;99.90;;;;;;5016215;28;20068;-87
2023/09/25 05:35:07;;;;;;;0.43;0.13;;;11.70;99.90;;;;;;5014799;28;20529;-88
2023/09/25 05:37:33;;;;;;;0.52;0.20;;;11.70;99.90;;;;;;4991237;28;20528;-87
2023/09/25 05:40:00;;;;;;;0.85;0.22;;;11.70;99.90;;;;;;4981922;28;20037;-86
2023/09/25 05:42:25;;;;;;;0.60;0.20;;;11.70;99.90;;;;;;4983583;28;20183;-88
2023/09/25 05:44:51;;;;;;;0.75;0.30;;;11.70;99.90;;;;;;4998554;28;20034;-87
2023/09/25 05:47:17;;;;;;;0.73;0.20;;;11.70;99.90;;;;;;5029448;28;20485;-86
2023/09/25 05:49:43;;;;;;;0.60;0.20;;;11.70;99.90;;;;;;5017958;28;20459;-87
2023/09/25 05:52:09;;;;;;;0.57;0.20;;;11.70;99.90;;;;;;5019536;28;20048;-86
2023/09/25 05:54:34;;;;;;;0.73;0.30;;;11.70;99.90;;;;;;5021315;28;20060;-86
2023/09/25 05:57:00;;;;;;;0.80;0.20;;;11.70;99.90;;;;;;5005799;28;20065;-88
2023/09/25 05:59:26;;;;;;;1.67;0.30;;;11.70;99.90;;;;;;5023073;28;20049;-88
2023/09/25 06:01:52;;;;;;;0.80;0.25;;;11.70;99.90;;;;;;5018535;28;20044;-87
2023/09/25 06:04:18;;;;;;;0.70;0.20;;;11.80;99.90;;;;;;5036951;28;20029;-88
2023/09/25 06:06:44;;;;;;;0.77;0.28;;;11.70;99.90;;;;;;5032504;28;20147;-87
2023/09/25 06:09:15;;;;;;;0.73;0.30;;;11.80;99.90;;;;;;5005250;28;20052;-87
2023/09/25 06:11:42;;;;;;;0.80;0.30;;;11.90;99.90;;;;;;5020371;28;20080;-87
2023/09/25 06:14:09;;;;;;;1.08;0.30;;;11.90;99.90;;;;;;5004293;28;20029;-88
2023/09/25 06:16:36;;;;;;;1.23;0.20;;;11.90;99.90;;;;;;5018335;28;20535;-87
2023/09/25 06:19:03;;;;;;;0.98;0.20;;;11.90;99.90;;;;;;5020068;28;20132;-87
2023/09/25 06:21:30;;;;;;;0.55;0.20;;;12.00;99.90;;;;;;5021709;28;20030;-88
2023/09/25 06:23:55;;;;;;;0.95;0.20;;;12.00;99.90;;;;;;5021329;28;20051;-88
2023/09/25 06:26:21;;;;;;;1.45;0.20;;;12.20;99.90;;;;;;5021016;28;20115;-87
2023/09/25 06:28:47;;;;;;;0.93;0.20;;;12.20;99.90;;;;;;5023011;28;20033;-88
2023/09/25 06:31:13;;;;;;;0.68;0.20;;;12.20;99.90;;;;;;5002980;28;20032;-87
2023/09/25 06:33:39;;;;;;;1.02;0.30;;;12.30;99.90;;;;;;5019517;28;20031;-87
2023/09/25 06:36:05;;;;;;;1.00;0.30;;;12.30;99.90;;;;;;5001271;28;20029;-86
2023/09/25 06:38:31;;;;;;;0.73;0.28;;;12.40;99.90;;;;;;5013289;28;20477;-87
2023/09/25 06:40:57;;;;;;;0.95;0.30;;;12.40;99.90;;;;;;5003042;28;20025;-85
2023/09/25 06:43:22;;;;;;;1.40;0.20;;;12.40;99.90;;;;;;5035370;28;20366;-87
2023/09/25 06:45:48;;;;;;;1.13;0.30;;;12.50;99.90;;;;;;5018483;28;20022;-87
2023/09/25 06:48:14;;;;;;;0.95;0.30;;;12.50;99.90;;;;;;5021586;28;20030;-86
2023/09/25 06:50:40;;;;;;;1.58;0.25;;;12.60;99.90;;;;;;5032758;28;20025;-87
2023/09/25 06:53:05;;;;;;;1.05;0.30;;;12.70;99.90;;;;;;5019387;28;20034;-86
2023/09/25 06:55:32;;;;;;;1.77;0.40;;;12.80;99.90;;;;;;5015602;28;20032;-86
2023/09/25 06:57:57;;;;;;;0.95;0.30;;;12.80;99.90;;;;;;5026265;28;20103;-87
2023/09/25 07:00:24;;;;;;;4.18;0.30;;;13.00;99.90;;;;;;5036156;28;20029;-87
2023/09/25 07:02:50;;;;;;;0.90;0.30;;;13.20;99.90;;;;;;5012352;28;20029;-88
2023/09/25 07:05:17;;;;;;;0.70;0.22;;;13.30;99.90;;;;;;5016466;28;20026;-85
2023/09/25 07:07:42;;;;;;;0.73;0.20;;;13.40;99.90;;;;;;5017923;28;20033;-88
2023/09/25 07:10:10;;;;;;;1.25;0.30;;;13.60;99.90;;;;;;5032033;28;20025;-87
2023/09/25 07:12:37;;;;;;;1.98;0.30;;;13.80;99.90;;;;;;5018912;28;20022;-89
2023/09/25 07:15:03;;;;;;;0.85;0.20;;;13.90;99.90;;;;;;5002351;28;20029;-88
2023/09/25 07:17:29;;;;;;;1.50;0.40;;;14.00;99.90;;;;;;5001639;28;20033;-89
2023/09/25 07:19:56;;;;;;;1.17;0.40;;;14.10;99.90;;;;;;5002298;28;20069;-88
2023/09/25 07:22:23;;;;;;;1.10;0.30;;;14.10;99.90;;;;;;5040085;28;20052;-89
2023/09/25 07:24:50;;;;;;;1.13;0.30;;;14.30;99.90;;;;;;5036056;28;20108;-88
2023/09/25 07:27:16;;;;;;;0.80;0.30;;;14.40;99.90;;;;;;5035928;28;20068;-87
2023/09/25 07:29:43;;;;;;;0.73;0.30;;;14.50;99.90;;;;;;5003031;28;20037;-87
2023/09/25 07:32:10;;;;;;;0.75;0.20;;;14.60;99.90;;;;;;5037129;28;20025;-89
2023/09/25 07:34:36;;;;;;;0.70;0.20;;;14.70;99.90;;;;;;5019411;28;20030;-87
2023/09/25 07:37:04;;;;;;;0.90;0.20;;;14.80;99.90;;;;;;5013396;28;20477;-86
2023/09/25 07:39:30;;;;;;;0.50;0.20;;;14.80;99.90;;;;;;5016010;28;20040;-85
2023/09/25 07:41:57;;;;;;;1.23;0.20;;;14.90;99.90;;;;;;5034525;28;20030;-87
2023/09/25 07:44:31;;;;;;;0.98;0.20;;;15.00;99.90;;;;;;5002460;28;20068;-88
2023/09/25 07:46:58;;;;;;;0.77;0.20;;;15.00;99.90;;;;;;4997121;28;20026;-88
2023/09/25 07:49:24;;;;;;;1.33;0.28;;;15.20;99.90;;;;;;5014859;28;20117;-86
2023/09/25 07:51:51;;;;;;;0.77;0.20;;;15.40;99.90;;;;;;5036250;28;20438;-87
2023/09/25 07:54:17;;;;;;;0.80;0.30;;;15.60;99.90;;;;;;5012711;28;20033;-87
2023/09/25 07:56:43;;;;;;;2.22;0.30;;;15.70;99.90;;;;;;5015712;28;20525;-87
2023/09/25 07:59:10;;;;;;;0.80;0.25;;;15.80;99.90;;;;;;5012292;28;20045;-90
2023/09/25 08:01:39;;;;;;;1.30;0.30;;;15.80;99.90;;;;;;5012023;28;20052;-87
2023/09/25 08:04:05;;;;;;;0.87;0.30;;;15.90;99.90;;;;;;5027015;28;20109;-87
2023/09/25 08:06:31;;;;;;;0.70;0.20;;;16.00;99.90;;;;;;5009534;28;20084;-86
2023/09/25 08:08:57;;;;;;;0.77;0.20;;;16.10;99.90;;;;;;5009415;28;20041;-90
2023/09/25 08:11:24;;;;;;;1.50;0.30;;;16.30;99.90;;;;;;4993713;28;20018;-88
2023/09/25 08:13:50;;;;;;;1.48;0.30;;;16.30;99.90;;;;;;5014540;28;20030;-90
2023/09/25 08:16:18;;;;;;;1.30;0.30;;;16.30;99.90;;;;;;5009638;28;20033;-88
2023/09/25 08:18:45;;;;;;;1.75;0.30;;;16.50;99.90;;;;;;5008444;28;20057;-89
2023/09/25 08:21:10;;;;;;;1.17;0.30;;;16.60;99.90;;;;;;5024978;28;20120;-85
2023/09/25 08:23:36;;;;;;;0.90;0.30;;;16.80;99.90;;;;;;5012377;28;20110;-84
2023/09/25 08:26:05;;;;;;;2.88;0.30;;;16.80;99.90;;;;;;5012956;28;20385;-89
2023/09/25 08:28:32;;;;;;;0.80;0.20;;;17.00;99.90;;;;;;4994765;28;20124;-85
2023/09/25 08:30:58;;;;;;;1.67;0.20;;;17.00;99.90;;;;;;5009308;28;20313;-87
2023/09/25 08:33:24;;;;;;;0.90;0.20;;;17.20;99.90;;;;;;5025981;28;20061;-88
2023/09/25 08:35:50;;;;;;;1.58;0.35;;;17.10;99.90;;;;;;5009257;28;20022;-88
2023/09/25 08:38:16;;;;;;;1.13;0.20;;;17.00;99.90;;;;;;5008856;28;20472;-87
2023/09/25 08:40:51;;;;;;;0.90;0.20;;;17.20;99.90;;;;;;5010795;28;20061;-88
2023/09/25 08:43:21;;;;;;;0.60;0.20;;;17.50;99.90;;;;;;4992504;28;20112;-89
2023/09/25 08:45:50;;;;;;;1.58;0.40;;;17.30;99.90;;;;;;5008902;28;20034;-88
2023/09/25 08:48:17;;;;;;;0.98;0.20;;;17.30;99.90;;;;;;4994096;28;20036;-87
2023/09/25 08:50:44;;;;;;;1.08;0.20;;;17.30;99.90;;;;;;4993724;28;20092;-88
2023/09/25 08:53:10;;;;;;;1.17;0.30;;;17.20;99.90;;;;;;5011015;28;20110;-86
2023/09/25 08:55:36;;;;;;;0.80;0.20;;;17.30;99.90;;;;;;5009995;28;20108;-88
2023/09/25 08:58:03;;;;;;;1.15;0.20;;;17.50;99.90;;;;;;5027786;28;20052;-88
2023/09/25 09:00:29;;;;;;;1.30;0.20;;;17.70;99.90;;;;;;5008965;28;20124;-88
2023/09/25 09:02:55;;;;;;;0.73;0.20;;;17.70;99.90;;;;;;5008370;28;20470;-93
2023/09/25 09:05:21;;;;;;;0.88;0.20;;;17.70;99.90;;;;;;5008460;28;20132;-86
2023/09/25 09:08:00;;;;;;;1.50;0.28;;;17.70;99.90;;;;;;4993249;28;20028;-86
2023/09/25 09:10:32;;;;;;;1.08;0.20;;;17.70;99.90;;;;;;5007171;28;20030;-85
2023/09/25 09:12:59;;;;;;;0.70;0.20;;;17.90;99.90;;;;;;5007963;28;20036;-86
2023/09/25 09:15:26;;;;;;;1.10;0.20;;;18.10;99.90;;;;;;5008662;28;20052;-86
2023/09/25 09:17:56;;;;;;;0.82;0.20;;;18.50;99.90;;;;;;4994608;28;20080;-88
2023/09/25 09:20:36;;;;;;;0.70;0.20;;;18.50;99.90;;;;;;4991387;28;20057;-84
2023/09/25 09:23:02;;;;;;;;;;;18.50;99.90;;;;;;5012451;28;20263;-86
2023/09/25 09:25:29;;;;;;;1.83;0.30;;;18.30;99.90;;;;;;4991253;28;20067;-86
2023/09/25 09:27:58;;;;;;;1.05;0.20;;;18.20;99.90;;;;;;5011288;28;20136;-85
2023/09/25 09:30:25;;;;;;;2.22;0.20;;;18.40;99.90;;;;;;5028293;28;20030;-86
2023/09/25 09:32:51;;;;;;;1.33;0.20;;;18.40;99.90;;;;;;5028747;28;20076;-86
2023/09/25 09:35:24;;;;;;;1.02;0.30;;;18.50;99.90;;;;;;4993958;28;20029;-84
2023/09/25 09:37:52;;;;;;;0.80;0.20;;;18.80;99.90;;;;;;5013321;28;20072;-86
2023/09/25 09:40:20;;;;;;;0.68;0.20;;;18.90;99.90;;;;;;4995384;28;21117;-87
2023/09/25 09:42:48;;;;;;;0.98;0.20;;;19.00;99.90;;;;;;5011139;28;20673;-86
2023/09/25 09:45:15;;;;;;;1.17;0.20;;;19.20;99.90;;;;;;5011346;28;20025;-91
2023/09/25 09:47:44;;;;;;;0.60;0.20;;;19.10;99.90;;;;;;5013264;28;20025;-88
2023/09/25 09:50:10;;;;;;;0.87;0.20;;;19.00;99.90;;;;;;5014089;28;20037;-87
2023/09/25 09:52:40;;;;;;;0.63;0.20;;;19.30;99.90;;;;;;5031018;28;20378;-88
2023/09/25 09:55:12;;;;;;;0.95;0.15;;;19.40;99.90;;;;;;5027711;28;20030;-87
2023/09/25 09:57:39;;;;;;;0.80;0.20;;;19.60;99.90;;;;;;5010930;28;20096;-87
2023/09/25 10:00:07;;;;;;;1.02;0.20;;;19.60;99.90;;;;;;4995369;28;20038;-88
2023/09/25 10:02:40;;;;;;;0.70;0.20;;;19.60;99.90;;;;;;5011952;28;20108;-88
2023/09/25 10:05:06;;;;;;;0.88;0.20;;;19.40;99.90;;;;;;4995326;28;20038;-88
2023/09/25 10:07:32;;;;;;;1.38;0.20;;;19.50;99.90;;;;;;4994472;28;20141;-89
2023/09/25 10:10:04;;;;;;;0.57;0.20;;;19.60;99.90;;;;;;5013667;28;20490;-90
2023/09/25 10:12:46;;;;;;;1.45;0.20;;;19.50;99.90;;;;;;5012784;28;20500;-88
2023/09/25 10:15:16;;;;;;;0.85;0.20;;;19.50;99.90;;;;;;4994714;28;20142;-85
2023/09/25 10:17:45;;;;;;;1.35;0.20;;;19.60;99.90;;;;;;4995594;28;20382;-87
2023/09/25 10:20:33;;;;;;;1.27;0.30;;;19.40;99.90;;;;;;5013518;28;20186;-89
2023/09/25 10:23:07;;;;;;;1.27;0.30;;;19.30;99.90;;;;;;5010842;28;20497;-88
2023/09/25 10:25:56;;;;;;;1.33;0.20;;;19.40;99.90;;;;;;4994509;28;20041;-86
2023/09/25 10:28:29;;;;;;;1.23;0.30;;;19.80;99.90;;;;;;5027494;28;20200;-84
2023/09/25 10:31:02;;;;;;;1.20;0.22;;;19.90;99.90;;;;;;5010813;28;20168;-88
2023/09/25 10:33:37;;;;;;;0.80;0.20;;;20.00;99.90;;;;;;4995404;28;20040;-87
2023/09/25 10:36:06;;;;;;;2.25;0.30;;;19.90;99.90;;;;;;5012478;28;20124;-85
2023/09/25 10:38:35;;;;;;;0.90;0.20;;;20.20;99.90;;;;;;5009316;28;20081;-86
2023/09/25 10:41:06;;;;;;;1.30;0.20;;;20.00;99.90;;;;;;5010814;28;20252;-89
2023/09/25 10:43:33;;;;;;;2.08;0.25;;;19.90;99.90;;;;;;4995169;28;20045;-85
2023/09/25 10:45:59;;;;;;;1.77;0.20;;;19.90;99.90;;;;;;5014636;28;20033;-88
2023/09/25 10:48:27;;;;;;;0.73;0.20;;;20.00;99.90;;;;;;5009456;28;20055;-88
2023/09/25 10:50:54;;;;;;;0.65;0.20;;;20.20;99.90;;;;;;5010024;28;20037;-89
2023/09/25 10:53:21;;;;;;;0.50;0.20;;;20.20;99.90;;;;;;5009649;28;20140;-87
2023/09/25 10:55:48;;;;;;;0.50;0.20;;;20.20;99.90;;;;;;5027679;28;20366;-88
2023/09/25 10:58:14;;;;;;;2.13;0.20;;;20.10;99.90;;;;;;4994291;28;20038;-91
2023/09/25 11:00:45;;;;;;;2.58;0.20;;;20.20;99.90;;;;;;5010797;28;20030;-91
2023/09/25 11:03:10;;;;;;;0.50;0.10;;;20.20;99.90;;;;;;5009048;28;20025;-85
2023/09/25 11:05:38;;;;;;;0.88;0.20;;;20.20;99.90;;;;;;5029067;28;20371;-90
2023/09/25 11:08:06;;;;;;;0.85;0.20;;;20.20;99.90;;;;;;5010263;28;20034;-85
2023/09/25 11:10:36;;;;;;;1.20;0.20;;;20.40;99.90;;;;;;4994702;28;20656;-87
2023/09/25 11:13:02;;;;;;;0.60;0.20;;;20.50;99.90;;;;;;4996171;28;20038;-86
2023/09/25 11:15:29;;;;;;;0.93;0.20;;;20.60;99.90;;;;;;4993993;28;20108;-86
2023/09/25 11:17:56;;;;;;;0.88;0.20;;;20.70;99.90;;;;;;5009026;28;20478;-86
2023/09/25 11:20:33;;;;;;;1.10;0.20;;;20.90;99.90;;;;;;5009399;28;20041;-91
2023/09/25 11:23:13;;;;;;;1.35;0.20;;;20.90;99.90;;;;;;4991886;28;20083;-86
2023/09/25 11:26:02;;;;;;;0.88;0.20;;;21.00;99.90;;;;;;4996619;28;20103;-86
2023/09/25 11:28:30;;;;;;;0.73;0.20;;;20.80;99.90;;;;;;5015355;28;20103;-85
2023/09/25 11:30:56;;;;;;;0.95;0.20;;;21.10;99.90;;;;;;4993962;28;20037;-87
2023/09/25 11:33:23;;;;;;;0.93;0.20;;;21.30;99.90;;;;;;5013352;28;20037;-87
2023/09/25 11:35:51;;;;;;;0.52;0.20;;;21.10;99.90;;;;;;5026925;28;20569;-85
2023/09/25 11:38:21;;;;;;;1.02;0.10;;;21.30;99.90;;;;;;5015111;28;20064;-86
2023/09/25 11:40:47;;;;;;;1.02;0.20;;;21.20;99.90;;;;;;5017582;28;20116;-86
2023/09/25 11:43:13;;;;;;;1.02;0.28;;;21.20;99.90;;;;;;5016178;28;20041;-87
2023/09/25 11:45:40;;;;;;;0.80;0.20;;;21.00;99.90;;;;;;4996063;28;20038;-87
2023/09/25 11:48:08;;;;;;;1.73;0.30;;;21.30;99.90;;;;;;4994399;28;20033;-85
2023/09/25 11:50:36;;;;;;;0.93;0.20;;;21.10;99.90;;;;;;4996299;28;20080;-89
2023/09/25 11:53:03;;;;;;;0.77;0.20;;;21.40;99.90;;;;;;4995168;28;20072;-87
2023/09/25 11:55:29;;;;;;;0.75;0.20;;;21.20;99.90;;;;;;4994923;28;20033;-86
2023/09/25 11:57:55;;;;;;;1.48;0.30;;;21.40;99.90;;;;;;5013494;28;20342;-84
2023/09/25 12:00:27;;;;;;;0.82;0.20;;;21.40;99.90;;;;;;4992656;28;20089;-89
2023/09/25 12:02:53;;;;;;;6.30;0.52;;;21.70;99.90;;;;;;5028914;28;20458;-86
2023/09/25 12:05:20;;;;;;;0.60;0.10;;;21.80;99.90;;;;;;4998511;28;20074;-88
2023/09/25 12:07:47;;;;;;;1.00;0.20;;;21.40;99.90;;;;;;4999458;28;20107;-87
2023/09/25 12:10:17;;;;;;;2.00;0.22;;;21.30;99.90;;;;;;4998054;28;20045;-85
2023/09/25 12:12:44;;;;;;;1.27;0.20;;;21.60;99.90;;;;;;4994150;28;20036;-87
2023/09/25 12:15:15;;;;;;;0.77;0.20;;;21.80;99.90;;;;;;5011147;28;20068;-85
2023/09/25 12:17:41;;;;;;;1.00;0.20;;;21.50;99.90;;;;;;5008910;28;20030;-89
2023/09/25 12:20:15;;;;;;;1.58;0.30;;;21.30;99.90;;;;;;5009407;28;20434;-88
2023/09/25 12:22:44;;;;;;;1.58;0.30;;;21.20;99.90;;;;;;5011673;28;20045;-86
2023/09/25 12:25:11;;;;;;;1.60;0.30;;;21.30;99.90;;;;;;5011263;28;20037;-86
2023/09/25 12:27:38;;;;;;;0.75;0.30;;;21.20;99.90;;;;;;4994636;28;20026;-85
2023/09/25 12:30:07;;;;;;;1.80;0.30;;;21.60;99.90;;;;;;5014758;28;20044;-85
2023/09/25 12:32:37;;;;;;;2.45;0.30;;;21.40;99.90;;;;;;4997674;28;20088;-90
2023/09/25 12:35:04;;;;;;;1.65;0.30;;;21.60;99.90;;;;;;4998779;28;20033;-89
2023/09/25 12:37:29;;;;;;;1.88;0.30;;;21.50;99.90;;;;;;5010947;28;20080;-86
2023/09/25 12:39:55;;;;;;;0.85;0.22;;;21.60;99.90;;;;;;5012322;28;20402;-89
2023/09/25 12:42:21;;;;;;;1.30;0.30;;;21.50;99.90;;;;;;5011489;28;20045;-87
2023/09/25 12:44:47;;;;;;;1.58;0.30;;;21.40;99.90;;;;;;5011084;28;20033;-92
2023/09/25 12:47:13;;;;;;;1.40;0.30;;;21.60;99.90;;;;;;5010471;28;20029;-86